Dongfang Kantan No.1 — BFEJ — position and weather

sailwx.info

Track history (hours):
 
Tides and Currents Weather Stations Pressure Air Temp Water Temp Dewpoint Dewpoint Depression Visibility Wind Speed Wind Dir Waves Ship Positions

Dongfang Kantan No.1

Last reported at 2017-Dec-04 05:34 UTC. Time now 2018-Feb-26 03:50 UTC.
Position N 36°09' E 014°41'.
Warning: this ship's position is months out of date.

Length 62 m; draft 3.8 m.

Type: Ship. MMSI: 413300120.

Date/timePositionNaut miles runAvg speedWind from/ knotsBaromVisibWave heightAir tempDewpointWater temp
2017-Dec-04 05:34N 36°09' E 014°41'111.2
2017-Dec-04 05:28N 36°09' E 014°40'510.6
2017-Dec-04 04:59N 36°10' E 014°34'510.2
2017-Dec-04 04:30N 36°12' E 014°28'510.3
2017-Dec-04 04:00N 36°13' E 014°22'510.8
2017-Dec-04 03:30N 36°15' E 014°15'510.0
2017-Dec-04 03:00N 36°16' E 014°09'510.3
2017-Dec-04 02:30N 36°18' E 014°03'510.3
2017-Dec-04 01:59N 36°20' E 013°57'510.2
2017-Dec-04 01:30N 36°22' E 013°52'  
2017-Nov-29 21:38N 35°60' W 005°12'213.2
2017-Nov-29 21:31N 35°60' W 005°14'612.8
2017-Nov-29 21:00N 35°58' W 005°22'250 9.8
2017-Nov-28 19:23N 33°10' W 009°07'410.0
2017-Nov-28 19:00N 33°07' W 009°10'2610.0
2017-Nov-28 16:23N 32°47' W 009°30'351 9.9
2017-Nov-27 04:58N 28°02' W 013°29'5 9.9
2017-Nov-27 04:30N 27°58' W 013°32'510.0
2017-Nov-27 04:00N 27°54' W 013°35'5 9.9
2017-Nov-27 03:30N 27°50' W 013°38'5 9.5
2017-Nov-27 03:00N 27°46' W 013°41'5 9.5
2017-Nov-27 02:30N 27°43' W 013°45'12 9.9
2017-Nov-27 01:20N 27°33' W 013°52'310.0
2017-Nov-27 01:00N 27°31' W 013°55'5 9.8
2017-Nov-27 00:30N 27°27' W 013°58'5 9.9
2017-Nov-27 00:00N 27°23' W 014°02'510.2
2017-Nov-26 23:30N 27°19' W 014°05'510.2
2017-Nov-26 23:00N 27°15' W 014°08'510.4
2017-Nov-26 22:30N 27°10' W 014°12'  
Track history (hours):
 
Tides and Currents Weather Stations Pressure Air Temp Water Temp Dewpoint Dewpoint Depression Visibility Wind Speed Wind Dir Waves Ship Positions

Dongfang Kantan No.1

Last reported at 2017-Dec-04 05:34 UTC. Time now 2018-Feb-26 03:50 UTC.
Position N 36°09' E 014°41'.
Warning: this ship's position is months out of date.

Length 62 m; draft 3.8 m.

Type: Ship. MMSI: 413300120.

Date/timePositionNaut miles runAvg speedWind from/ knotsBaromVisibWave heightAir tempDewpointWater temp
2017-Dec-04 05:34N 36°09' E 014°41'111.2
2017-Dec-04 05:28N 36°09' E 014°40'510.6
2017-Dec-04 04:59N 36°10' E 014°34'510.2
2017-Dec-04 04:30N 36°12' E 014°28'510.3
2017-Dec-04 04:00N 36°13' E 014°22'510.8
2017-Dec-04 03:30N 36°15' E 014°15'510.0
2017-Dec-04 03:00N 36°16' E 014°09'510.3
2017-Dec-04 02:30N 36°18' E 014°03'510.3
2017-Dec-04 01:59N 36°20' E 013°57'510.2
2017-Dec-04 01:30N 36°22' E 013°52'  
2017-Nov-29 21:38N 35°60' W 005°12'213.2
2017-Nov-29 21:31N 35°60' W 005°14'612.8
2017-Nov-29 21:00N 35°58' W 005°22'250 9.8
2017-Nov-28 19:23N 33°10' W 009°07'410.0
2017-Nov-28 19:00N 33°07' W 009°10'2610.0
2017-Nov-28 16:23N 32°47' W 009°30'351 9.9
2017-Nov-27 04:58N 28°02' W 013°29'5 9.9
2017-Nov-27 04:30N 27°58' W 013°32'510.0
2017-Nov-27 04:00N 27°54' W 013°35'5 9.9
2017-Nov-27 03:30N 27°50' W 013°38'5 9.5
2017-Nov-27 03:00N 27°46' W 013°41'5 9.5
2017-Nov-27 02:30N 27°43' W 013°45'12 9.9
2017-Nov-27 01:20N 27°33' W 013°52'310.0
2017-Nov-27 01:00N 27°31' W 013°55'5 9.8
2017-Nov-27 00:30N 27°27' W 013°58'5 9.9
2017-Nov-27 00:00N 27°23' W 014°02'510.2
2017-Nov-26 23:30N 27°19' W 014°05'510.2
2017-Nov-26 23:00N 27°15' W 014°08'510.4
2017-Nov-26 22:30N 27°10' W 014°12'  

Dump ship's entire track history